createdAt,value
2019-01-24T00:00:19.014Z,33.73
2019-01-24T00:04:23.552Z,34.70
2019-01-24T00:08:28.099Z,33.83
2019-01-24T00:12:32.590Z,36.57
2019-01-24T00:19:20.362Z,38.03
2019-01-24T00:23:24.867Z,37.13
2019-01-24T00:27:29.408Z,36.27
2019-01-24T00:35:04.747Z,41.93
2019-01-24T00:39:09.783Z,43.33
2019-01-24T00:43:14.678Z,47.17
2019-01-24T00:47:19.270Z,51.07
2019-01-24T00:52:13.086Z,52.27
2019-01-24T00:56:17.642Z,72.90
2019-01-24T01:00:24.130Z,77.58
2019-01-24T01:04:29.812Z,74.17
2019-01-24T01:08:34.537Z,77.27
2019-01-24T01:12:39.066Z,75.42
2019-01-24T01:16:43.591Z,70.28
2019-01-24T01:20:48.153Z,69.35
2019-01-24T01:24:52.692Z,69.30
2019-01-24T01:28:57.239Z,67.60
2019-01-24T01:33:01.783Z,68.70
2019-01-24T01:37:06.275Z,67.30
2019-01-24T01:41:10.864Z,65.55
2019-01-24T01:45:17.696Z,63.92
2019-01-24T01:49:22.251Z,62.13
2019-01-24T01:53:26.774Z,64.07
2019-01-24T01:57:31.340Z,62.65
2019-01-24T02:01:35.874Z,61.10
2019-01-24T02:05:40.423Z,62.85
2019-01-24T02:09:44.971Z,63.75
2019-01-24T02:13:49.483Z,62.45
2019-01-24T02:17:54.021Z,56.60
2019-01-24T02:21:58.566Z,53.85
2019-01-24T02:26:03.102Z,48.40
2019-01-24T02:30:09.659Z,44.42
2019-01-24T02:34:14.187Z,44.30
2019-01-24T02:38:18.739Z,42.45
2019-01-24T02:42:23.309Z,43.83
2019-01-24T02:46:27.850Z,44.27
2019-01-24T02:50:32.372Z,44.88
2019-01-24T02:54:36.914Z,45.48
2019-01-24T02:58:41.436Z,43.98
2019-01-24T03:02:45.966Z,41.75
2019-01-24T03:06:50.475Z,38.73
2019-01-24T03:10:55.036Z,40.78
2019-01-24T03:14:59.571Z,41.48
2019-01-24T03:19:04.215Z,41.85
2019-01-24T03:23:08.703Z,41.35
2019-01-24T03:27:13.235Z,43.00
2019-01-24T03:31:17.777Z,43.23
2019-01-24T03:35:24.489Z,42.48
2019-01-24T03:39:29.055Z,37.78
2019-01-24T03:43:33.662Z,40.63
2019-01-24T03:47:38.199Z,42.20
2019-01-24T03:51:42.759Z,39.42
2019-01-24T03:55:47.317Z,39.03
2019-01-24T03:59:51.826Z,33.40
2019-01-24T04:03:56.373Z,34.67
2019-01-24T04:08:00.920Z,35.17
2019-01-24T04:12:05.658Z,35.98
2019-01-24T04:16:10.259Z,34.67
2019-01-24T04:20:14.871Z,36.48
2019-01-24T04:24:19.412Z,37.17
2019-01-24T04:28:23.981Z,35.25
2019-01-24T04:32:28.518Z,37.00
2019-01-24T04:36:33.024Z,36.20
2019-01-24T04:40:37.617Z,32.08
2019-01-24T04:44:42.157Z,31.17
2019-01-24T04:48:46.788Z,29.73
2019-01-24T04:52:51.356Z,30.43
2019-01-24T04:56:55.855Z,29.33
2019-01-24T05:01:00.416Z,29.92
2019-01-24T05:05:05.283Z,28.37
2019-01-24T05:09:09.816Z,28.32
2019-01-24T05:13:14.336Z,28.85
2019-01-24T05:17:18.881Z,27.62
2019-01-24T05:21:23.415Z,28.57
2019-01-24T05:25:27.964Z,29.77
2019-01-24T05:29:32.469Z,29.63
2019-01-24T05:33:37.016Z,28.70
2019-01-24T05:37:41.564Z,27.65
2019-01-24T06:50:17.461Z,29.02
2019-01-24T06:54:22.471Z,30.27
2019-01-24T06:58:26.946Z,30.00
2019-01-24T07:05:58.703Z,30.23
2019-01-24T07:10:03.271Z,30.72
2019-01-24T07:14:07.779Z,30.95
2019-01-24T08:06:11.773Z,28.05
2019-01-24T08:10:17.652Z,28.25
2019-01-24T09:14:21.599Z,37.43
2019-01-24T09:30:05.688Z,27.63
2019-01-24T09:34:10.274Z,26.87
2019-01-24T09:42:20.855Z,28.37
2019-01-24T09:46:25.348Z,27.40
2019-01-24T09:58:31.245Z,25.20
2019-01-24T10:02:46.179Z,24.80
2019-01-24T10:06:50.788Z,26.33
2019-01-24T10:10:55.348Z,27.77
2019-01-24T10:14:59.924Z,26.87
2019-01-24T10:19:04.525Z,27.87
2019-01-24T10:25:56.877Z,24.87
2019-01-24T10:30:01.419Z,26.80
2019-01-24T10:34:06.527Z,26.73
2019-01-24T10:38:11.083Z,25.60
2019-01-24T10:42:15.672Z,26.70
2019-01-24T10:46:20.224Z,28.83
2019-01-24T10:50:25.568Z,27.97
2019-01-24T10:54:30.120Z,29.23
2019-01-24T11:02:34.028Z,27.03
2019-01-24T11:06:38.566Z,29.50
2019-01-24T11:17:41.013Z,26.03
2019-01-24T11:23:49.642Z,26.87
2019-01-24T11:27:54.166Z,28.83
2019-01-24T11:31:58.673Z,26.80
2019-01-24T11:36:03.425Z,35.70
2019-01-24T11:40:09.774Z,27.30
2019-01-24T11:44:14.334Z,29.47
2019-01-24T11:48:18.839Z,27.93
2019-01-24T11:55:53.399Z,28.77
2019-01-24T11:59:57.949Z,28.00
2019-01-24T12:04:57.060Z,27.10
2019-01-24T12:09:01.660Z,29.10
2019-01-24T12:13:06.508Z,28.47
2019-01-24T12:17:11.047Z,26.17
2019-01-24T12:21:16.439Z,25.43
2019-01-24T12:25:21.151Z,25.87
2019-01-24T12:29:25.701Z,27.83
2019-01-24T12:34:45.850Z,26.53
2019-01-24T12:44:07.648Z,26.20
2019-01-24T12:48:12.238Z,25.10
2019-01-24T12:52:16.843Z,24.53
2019-01-24T12:56:21.350Z,25.10
2019-01-24T13:02:13.433Z,27.27
2019-01-24T13:06:17.944Z,25.83
2019-01-24T13:10:23.999Z,28.83
2019-01-24T13:16:23.379Z,29.67
2019-01-24T13:23:05.955Z,25.17
2019-01-24T13:31:49.285Z,25.77
2019-01-24T13:41:58.740Z,27.33
2019-01-24T13:46:06.518Z,27.47
2019-01-24T13:50:13.923Z,27.07
2019-01-24T13:55:57.713Z,26.80
2019-01-24T14:00:49.516Z,26.37
2019-01-24T14:04:54.195Z,25.50
2019-01-24T14:08:58.759Z,27.43
2019-01-24T14:20:09.031Z,27.67
2019-01-24T14:24:13.574Z,26.80
2019-01-24T14:28:19.344Z,25.97
2019-01-24T14:32:23.880Z,28.13
2019-01-24T14:36:28.433Z,27.73
2019-01-24T14:40:33.081Z,27.10
2019-01-24T14:44:37.621Z,26.73
2019-01-24T14:48:42.167Z,25.37
2019-01-24T14:52:46.711Z,27.53
2019-01-24T14:59:19.470Z,26.37
2019-01-24T15:08:49.279Z,27.13
2019-01-24T15:21:00.105Z,28.23
2019-01-24T15:28:48.909Z,29.50
2019-01-24T15:39:33.988Z,26.63
2019-01-24T15:47:42.247Z,27.80
2019-01-24T15:54:19.960Z,29.27
2019-01-24T15:58:24.483Z,28.17
2019-01-24T16:03:40.347Z,30.37
2019-01-24T16:07:44.831Z,30.53
2019-01-24T16:11:49.379Z,29.90
2019-01-24T16:19:15.529Z,28.50
2019-01-24T16:24:16.371Z,28.13
2019-01-24T16:33:37.263Z,28.87
2019-01-24T16:39:09.657Z,31.10
2019-01-24T16:47:52.512Z,29.83
2019-01-24T16:51:57.015Z,29.93
2019-01-24T16:56:25.599Z,31.83
2019-01-24T17:01:20.163Z,26.60
2019-01-24T17:05:24.714Z,29.07
2019-01-24T17:09:47.423Z,29.67
2019-01-24T17:13:51.955Z,29.93
2019-01-24T17:17:56.455Z,30.00
2019-01-24T17:25:17.613Z,28.10
2019-01-24T17:29:22.432Z,29.00
2019-01-24T17:34:26.660Z,30.50
2019-01-24T17:46:10.807Z,29.07
2019-01-24T17:54:46.767Z,28.87
2019-01-24T18:00:16.180Z,27.70
2019-01-24T18:04:21.719Z,27.67
2019-01-24T18:08:31.177Z,24.60
2019-01-24T18:13:11.736Z,29.37
2019-01-24T18:20:32.674Z,30.27
2019-01-24T18:24:37.211Z,28.67
2019-01-24T18:28:41.749Z,31.40
2019-01-24T18:32:46.379Z,31.33
2019-01-24T18:43:26.068Z,31.00
2019-01-24T18:57:57.209Z,27.20
2019-01-24T19:02:01.714Z,30.47
2019-01-24T19:10:23.236Z,31.73
2019-01-24T19:18:43.800Z,29.87
2019-01-24T19:25:36.749Z,30.17
2019-01-24T19:36:58.008Z,27.07
2019-01-24T19:41:02.551Z,28.70
2019-01-24T19:45:10.971Z,30.60
2019-01-24T19:49:15.507Z,28.80
2019-01-24T19:53:20.128Z,31.20
2019-01-24T19:59:08.000Z,31.97
2019-01-24T20:04:43.408Z,29.80
2019-01-24T20:16:53.860Z,31.70
2019-01-24T20:24:09.152Z,30.47
2019-01-24T20:30:01.301Z,30.50
2019-01-24T20:36:46.042Z,20.27
2019-01-24T20:42:59.699Z,31.87
2019-01-24T20:53:44.557Z,32.83
2019-01-24T21:17:57.399Z,34.10
2019-01-24T21:22:01.923Z,35.80
2019-01-24T21:26:06.472Z,35.40
2019-01-24T21:30:17.373Z,34.43
2019-01-24T21:35:57.240Z,33.90
2019-01-24T21:41:25.756Z,35.17
2019-01-24T22:05:58.872Z,31.43
2019-01-24T22:10:03.403Z,33.87
2019-01-24T22:14:07.946Z,35.13
2019-01-24T22:18:12.484Z,33.70
2019-01-24T22:22:17.088Z,35.30
2019-01-24T22:28:48.069Z,35.37
2019-01-24T22:36:07.881Z,34.37
2019-01-24T22:40:12.804Z,34.60
2019-01-24T22:44:17.335Z,36.87
2019-01-24T22:53:59.961Z,39.03
2019-01-24T23:07:54.663Z,35.43
2019-01-24T23:13:27.431Z,35.20
2019-01-24T23:32:30.531Z,40.77
2019-01-24T23:39:10.643Z,39.83
2019-01-24T23:45:22.091Z,40.93
2019-01-24T23:49:26.623Z,37.70
2019-01-24T23:57:13.146Z,38.53
